createdAt,value
2018-08-20T00:00:00.749Z,19.60
2018-08-20T00:02:34.208Z,19.70
2018-08-20T00:05:02.430Z,19.70
2018-08-20T00:07:30.674Z,19.70
2018-08-20T00:09:58.915Z,19.60
2018-08-20T00:12:27.158Z,19.70
2018-08-20T00:14:55.374Z,19.70
2018-08-20T00:17:23.619Z,19.70
2018-08-20T00:19:51.840Z,19.80
2018-08-20T00:22:20.073Z,19.80
2018-08-20T00:24:59.695Z,19.80
2018-08-20T00:27:29.471Z,19.90
2018-08-20T00:29:57.702Z,19.70
2018-08-20T00:32:25.967Z,19.60
2018-08-20T00:34:54.186Z,19.60
2018-08-20T00:37:22.430Z,19.50
2018-08-20T00:39:50.655Z,19.40
2018-08-20T00:42:18.897Z,19.40
2018-08-20T00:44:47.133Z,19.30
2018-08-20T00:47:15.389Z,19.30
2018-08-20T00:49:43.627Z,19.40
2018-08-20T00:52:11.866Z,19.30
2018-08-20T00:54:40.089Z,19.30
2018-08-20T00:57:08.333Z,19.20
2018-08-20T00:59:36.569Z,19.30
2018-08-20T01:02:04.813Z,19.20
2018-08-20T01:04:33.034Z,19.20
2018-08-20T01:07:01.266Z,19.30
2018-08-20T01:09:29.499Z,19.20
2018-08-20T01:11:57.722Z,19.10
2018-08-20T01:14:25.968Z,19.20
2018-08-20T01:16:54.171Z,19.20
2018-08-20T01:19:22.410Z,19.00
2018-08-20T01:21:50.643Z,18.90
2018-08-20T01:24:18.864Z,18.80
2018-08-20T01:26:47.094Z,18.80
2018-08-20T01:29:15.305Z,18.80
2018-08-20T01:31:43.533Z,18.70
2018-08-20T01:34:13.518Z,18.60
2018-08-20T01:36:43.140Z,18.60
2018-08-20T01:39:11.365Z,18.70
2018-08-20T01:41:39.574Z,18.70
2018-08-20T01:44:07.926Z,18.60
2018-08-20T01:46:36.158Z,18.60
2018-08-20T01:49:04.394Z,18.50
2018-08-20T01:51:32.613Z,18.70
2018-08-20T01:54:00.842Z,18.60
2018-08-20T01:56:29.068Z,18.40
2018-08-20T01:58:57.312Z,18.40
2018-08-20T02:01:32.054Z,18.40
2018-08-20T02:04:00.304Z,18.30
2018-08-20T02:06:28.527Z,18.20
2018-08-20T02:08:56.767Z,18.30
2018-08-20T02:11:24.985Z,18.20
2018-08-20T02:13:53.230Z,18.10
2018-08-20T02:16:21.455Z,18.20
2018-08-20T02:18:49.673Z,18.20
2018-08-20T02:21:17.898Z,18.20
2018-08-20T02:23:46.130Z,18.20
2018-08-20T02:26:14.346Z,18.20
2018-08-20T02:28:42.575Z,18.20
2018-08-20T02:31:10.802Z,18.10
2018-08-20T02:33:39.042Z,18.10
2018-08-20T02:36:07.262Z,18.10
2018-08-20T02:38:35.499Z,18.10
2018-08-20T02:41:04.160Z,18.10
2018-08-20T02:43:32.407Z,18.10
2018-08-20T02:46:00.632Z,18.20
2018-08-20T02:48:28.839Z,18.20
2018-08-20T02:50:57.085Z,18.30
2018-08-20T02:53:25.306Z,18.20
2018-08-20T02:55:53.540Z,18.20
2018-08-20T02:58:21.783Z,18.30
2018-08-20T03:00:50.020Z,18.10
2018-08-20T03:03:18.253Z,18.10
2018-08-20T03:05:46.480Z,18.10
2018-08-20T03:08:14.699Z,18.20
2018-08-20T03:10:42.929Z,18.20
2018-08-20T03:13:11.151Z,18.10
2018-08-20T03:15:39.394Z,18.10
2018-08-20T03:18:07.625Z,18.10
2018-08-20T03:20:35.866Z,18.10
2018-08-20T03:23:04.111Z,18.10
2018-08-20T03:25:32.376Z,18.10
2018-08-20T03:28:00.613Z,18.10
2018-08-20T03:30:28.866Z,18.00
2018-08-20T03:32:57.090Z,18.00
2018-08-20T03:35:25.323Z,18.10
2018-08-20T03:37:53.550Z,17.90
2018-08-20T03:40:21.799Z,17.90
2018-08-20T03:42:50.025Z,17.90
2018-08-20T03:45:18.245Z,17.70
2018-08-20T03:47:46.450Z,17.70
2018-08-20T03:50:15.094Z,17.60
2018-08-20T03:52:43.311Z,17.60
2018-08-20T03:55:11.551Z,17.70
2018-08-20T03:57:39.831Z,17.80
2018-08-20T04:00:09.538Z,17.70
2018-08-20T04:02:37.746Z,17.50
2018-08-20T04:05:06.222Z,17.50
2018-08-20T04:07:34.331Z,17.60
2018-08-20T04:10:02.561Z,17.60
2018-08-20T04:12:30.786Z,17.50
2018-08-20T04:14:59.006Z,17.40
2018-08-20T04:17:27.215Z,17.50
2018-08-20T04:19:55.453Z,17.50
2018-08-20T04:22:23.673Z,17.70
2018-08-20T04:24:51.902Z,17.70
2018-08-20T04:27:20.131Z,17.70
2018-08-20T04:29:48.354Z,17.60
2018-08-20T04:32:16.602Z,17.50
2018-08-20T04:34:44.826Z,17.40
2018-08-20T04:37:13.047Z,17.40
2018-08-20T04:39:41.279Z,17.50
2018-08-20T04:42:09.533Z,17.50
2018-08-20T04:44:37.735Z,17.60
2018-08-20T04:47:06.168Z,17.40
2018-08-20T04:49:34.411Z,17.50
2018-08-20T04:52:02.725Z,17.60
2018-08-20T04:54:30.951Z,17.70
2018-08-20T04:56:59.410Z,17.70
2018-08-20T04:59:27.655Z,17.60
2018-08-20T05:01:55.878Z,17.50
2018-08-20T05:04:24.110Z,17.40
2018-08-20T05:06:52.351Z,17.40
2018-08-20T05:09:20.588Z,17.30
2018-08-20T05:11:48.812Z,17.30
2018-08-20T05:14:17.052Z,17.30
2018-08-20T05:16:45.279Z,17.50
2018-08-20T05:19:13.515Z,17.60
2018-08-20T05:21:41.815Z,17.50
2018-08-20T05:24:10.043Z,17.40
2018-08-20T05:26:38.274Z,17.40
2018-08-20T05:29:06.494Z,17.50
2018-08-20T05:31:34.738Z,17.60
2018-08-20T05:34:02.949Z,17.70
2018-08-20T05:36:31.186Z,17.70
2018-08-20T05:38:59.402Z,17.80
2018-08-20T05:41:27.682Z,17.80
2018-08-20T05:43:55.878Z,17.70
2018-08-20T05:46:24.101Z,17.70
2018-08-20T05:48:52.341Z,17.70
2018-08-20T05:51:20.570Z,17.70
2018-08-20T05:53:48.804Z,17.80
2018-08-20T05:56:17.025Z,17.80
2018-08-20T05:58:45.251Z,17.80
2018-08-20T06:01:13.576Z,17.80
2018-08-20T06:03:41.796Z,17.90
2018-08-20T06:06:10.018Z,18.00
2018-08-20T06:08:38.247Z,18.10
2018-08-20T06:11:06.499Z,18.30
2018-08-20T06:13:34.747Z,18.40
2018-08-20T06:16:03.004Z,18.50
2018-08-20T06:18:31.319Z,18.70
2018-08-20T06:20:59.546Z,18.70
2018-08-20T06:23:27.779Z,18.80
2018-08-20T06:25:56.007Z,18.80
2018-08-20T06:28:24.244Z,18.90
2018-08-20T06:30:52.467Z,19.00
2018-08-20T06:33:20.695Z,19.00
2018-08-20T06:35:48.966Z,19.20
2018-08-20T06:38:17.147Z,19.30
2018-08-20T06:40:45.398Z,19.40
2018-08-20T06:43:13.619Z,19.50
2018-08-20T06:45:41.820Z,19.50
2018-08-20T06:48:10.057Z,19.50
2018-08-20T06:50:38.266Z,19.70
2018-08-20T06:53:06.752Z,19.80
2018-08-20T06:55:34.959Z,19.90
2018-08-20T06:58:03.261Z,20.00
2018-08-20T07:00:31.869Z,20.00
2018-08-20T07:03:00.119Z,20.10
2018-08-20T07:05:28.352Z,20.20
2018-08-20T07:07:56.584Z,20.20
2018-08-20T07:10:25.534Z,20.40
2018-08-20T07:12:53.786Z,20.60
2018-08-20T07:15:22.015Z,20.70
2018-08-20T07:17:50.234Z,20.80
2018-08-20T07:20:18.467Z,20.80
2018-08-20T07:22:46.739Z,21.00
2018-08-20T07:25:14.930Z,21.10
2018-08-20T07:27:43.151Z,21.20
2018-08-20T07:30:11.743Z,21.30
2018-08-20T07:32:39.978Z,21.40
2018-08-20T07:35:08.211Z,21.60
2018-08-20T07:37:36.436Z,21.70
2018-08-20T07:40:06.055Z,21.90
2018-08-20T07:42:34.335Z,22.20
2018-08-20T07:45:02.520Z,22.60
2018-08-20T07:47:30.730Z,23.10
2018-08-20T07:49:58.959Z,23.70
2018-08-20T07:52:27.179Z,24.40
2018-08-20T07:54:55.414Z,25.20
2018-08-20T07:57:23.639Z,26.00
2018-08-20T07:59:51.880Z,26.70
2018-08-20T08:02:20.101Z,27.20
2018-08-20T08:04:48.342Z,27.50
2018-08-20T08:07:16.580Z,28.00
2018-08-20T08:09:44.819Z,28.00
2018-08-20T08:12:13.056Z,28.30
2018-08-20T08:14:41.275Z,28.40
2018-08-20T08:17:09.493Z,28.70
2018-08-20T08:19:37.752Z,28.50
2018-08-20T08:22:05.977Z,28.70
2018-08-20T08:24:34.244Z,28.90
2018-08-20T08:27:02.486Z,29.00
2018-08-20T08:29:30.729Z,29.20
2018-08-20T08:31:58.968Z,29.20
2018-08-20T08:34:27.197Z,29.40
2018-08-20T08:36:55.415Z,29.30
2018-08-20T08:39:23.640Z,29.70
2018-08-20T08:41:51.905Z,29.50
2018-08-20T08:44:20.108Z,29.50
2018-08-20T08:46:48.364Z,29.50
2018-08-20T08:49:16.586Z,29.60
2018-08-20T08:51:44.827Z,29.70
2018-08-20T08:54:13.061Z,29.80
2018-08-20T08:56:41.300Z,30.00
2018-08-20T08:59:09.530Z,30.20
2018-08-20T09:01:37.772Z,30.50
2018-08-20T09:04:05.996Z,30.50
2018-08-20T09:06:34.248Z,30.60
2018-08-20T09:09:02.515Z,30.90
2018-08-20T09:11:30.753Z,30.90
2018-08-20T09:13:58.986Z,31.00
2018-08-20T09:16:27.226Z,31.00
2018-08-20T09:18:55.439Z,31.20
2018-08-20T09:21:23.774Z,31.30
2018-08-20T09:23:52.003Z,31.40
2018-08-20T09:26:20.244Z,31.50
2018-08-20T09:28:48.472Z,31.70
2018-08-20T09:31:16.709Z,31.70
2018-08-20T09:33:44.934Z,31.80
2018-08-20T09:36:13.163Z,31.90
2018-08-20T09:38:41.375Z,31.90
2018-08-20T09:41:09.650Z,32.10
2018-08-20T09:43:37.932Z,32.20
2018-08-20T09:46:06.137Z,32.20
2018-08-20T09:48:34.374Z,32.20
2018-08-20T09:51:02.628Z,32.10
2018-08-20T09:53:31.010Z,32.40
2018-08-20T09:55:59.102Z,32.50
2018-08-20T09:58:27.356Z,32.50
2018-08-20T10:00:55.591Z,32.60
2018-08-20T10:03:23.819Z,32.80
2018-08-20T10:05:52.057Z,32.60
2018-08-20T10:08:20.288Z,32.30
2018-08-20T10:10:48.535Z,32.30
2018-08-20T10:13:16.768Z,32.60
2018-08-20T10:15:45.004Z,32.70
2018-08-20T10:18:14.061Z,32.90
2018-08-20T10:20:42.302Z,32.90
2018-08-20T10:23:10.521Z,33.00
2018-08-20T10:25:38.744Z,32.60
2018-08-20T10:28:06.993Z,32.40
2018-08-20T10:30:35.233Z,32.30
2018-08-20T10:33:03.482Z,32.60
2018-08-20T10:35:31.756Z,32.80
2018-08-20T10:38:00.128Z,32.80
2018-08-20T10:40:28.243Z,33.10
2018-08-20T10:42:56.477Z,33.40
2018-08-20T10:45:30.127Z,33.40
2018-08-20T10:47:58.360Z,33.50
2018-08-20T10:50:26.565Z,33.70
2018-08-20T10:52:54.812Z,33.80
2018-08-20T10:55:23.017Z,33.90
2018-08-20T10:57:51.260Z,34.00
2018-08-20T11:00:19.563Z,34.20
2018-08-20T11:02:47.799Z,34.20
2018-08-20T11:05:17.842Z,34.30
2018-08-20T11:07:46.158Z,34.20
2018-08-20T11:10:14.457Z,34.40
2018-08-20T11:12:42.610Z,34.50
2018-08-20T11:15:11.444Z,34.40
2018-08-20T11:17:39.697Z,34.50
2018-08-20T11:20:10.160Z,34.60
2018-08-20T11:22:38.411Z,34.40
2018-08-20T11:25:07.014Z,34.50
2018-08-20T11:27:35.300Z,34.40
2018-08-20T11:30:03.895Z,34.20
2018-08-20T11:32:32.232Z,33.50
2018-08-20T11:35:00.462Z,33.70
2018-08-20T11:37:29.142Z,34.00
2018-08-20T11:39:57.387Z,34.10
2018-08-20T11:42:25.593Z,34.20
2018-08-20T11:44:53.810Z,34.30
2018-08-20T11:47:22.039Z,34.10
2018-08-20T11:49:50.249Z,34.00
2018-08-20T11:52:18.493Z,33.80
2018-08-20T11:54:46.710Z,33.60
2018-08-20T11:57:14.949Z,33.10
2018-08-20T11:59:43.170Z,32.90
2018-08-20T12:02:11.385Z,32.50
2018-08-20T12:04:39.692Z,32.20
2018-08-20T12:07:07.958Z,31.80
2018-08-20T12:09:36.152Z,31.70
2018-08-20T12:12:04.418Z,31.80
2018-08-20T12:14:32.650Z,32.00
2018-08-20T12:17:00.866Z,32.10
2018-08-20T12:19:29.104Z,32.20
2018-08-20T12:21:57.320Z,32.10
2018-08-20T12:24:25.557Z,32.00
2018-08-20T12:26:53.835Z,32.00
2018-08-20T12:29:22.062Z,32.10
2018-08-20T12:31:50.306Z,32.00
2018-08-20T12:34:18.596Z,32.00
2018-08-20T12:36:46.790Z,31.90
2018-08-20T12:39:15.026Z,31.70
2018-08-20T12:41:43.246Z,31.50
2018-08-20T12:44:11.478Z,31.30
2018-08-20T12:46:39.696Z,31.20
2018-08-20T12:49:07.929Z,31.10
2018-08-20T12:51:36.152Z,31.00
2018-08-20T12:54:04.408Z,31.00
2018-08-20T12:56:32.623Z,31.00
2018-08-20T12:59:00.835Z,31.00
2018-08-20T13:01:29.091Z,30.80
2018-08-20T13:03:57.313Z,30.70
2018-08-20T13:06:25.552Z,30.60
2018-08-20T13:08:53.836Z,30.50
2018-08-20T13:11:22.001Z,30.50
2018-08-20T13:13:50.209Z,30.40
2018-08-20T13:16:18.540Z,30.50
2018-08-20T13:18:46.733Z,30.40
2018-08-20T13:21:14.930Z,30.30
2018-08-20T13:23:43.160Z,30.30
2018-08-20T13:26:11.373Z,30.10
2018-08-20T13:28:39.601Z,30.00
2018-08-20T13:31:07.840Z,30.10
2018-08-20T13:33:36.101Z,30.10
2018-08-20T13:36:04.307Z,30.00
2018-08-20T13:38:32.595Z,30.00
2018-08-20T13:41:00.813Z,30.00
2018-08-20T13:43:29.053Z,30.00
2018-08-20T13:45:57.307Z,30.00
2018-08-20T13:48:25.542Z,29.90
2018-08-20T13:50:54.330Z,29.80
2018-08-20T13:53:22.606Z,29.80
2018-08-20T13:55:50.818Z,29.80
2018-08-20T13:58:19.106Z,29.80
2018-08-20T14:00:47.364Z,29.60
2018-08-20T14:03:15.563Z,29.60
2018-08-20T14:05:43.789Z,29.60
2018-08-20T14:08:12.046Z,29.60
2018-08-20T14:10:40.273Z,29.60
2018-08-20T14:13:08.507Z,29.60
2018-08-20T14:15:36.766Z,29.70
2018-08-20T14:18:04.987Z,29.60
2018-08-20T14:20:33.214Z,29.50
2018-08-20T14:23:01.435Z,29.50
2018-08-20T14:25:29.666Z,29.40
2018-08-20T14:27:57.883Z,29.30
2018-08-20T14:30:26.175Z,29.40
2018-08-20T14:32:54.358Z,29.40
2018-08-20T14:35:22.607Z,29.40
2018-08-20T14:37:50.829Z,29.40
2018-08-20T14:40:19.455Z,29.40
2018-08-20T14:42:47.673Z,29.40
2018-08-20T14:45:16.634Z,29.40
2018-08-20T14:47:45.548Z,29.30
2018-08-20T14:50:16.451Z,29.40
2018-08-20T14:52:44.711Z,29.40
2018-08-20T14:55:13.307Z,29.40
2018-08-20T14:57:41.535Z,29.40
2018-08-20T15:00:12.722Z,29.40
2018-08-20T15:02:40.947Z,29.40
2018-08-20T15:05:09.693Z,29.40
2018-08-20T15:07:38.172Z,29.30
2018-08-20T15:10:07.596Z,29.30
2018-08-20T15:12:35.817Z,29.40
2018-08-20T15:15:04.648Z,29.40
2018-08-20T15:17:32.792Z,29.40
2018-08-20T15:20:01.011Z,29.40
2018-08-20T15:22:29.226Z,29.40
2018-08-20T15:24:57.455Z,29.30
2018-08-20T15:27:25.658Z,29.30
2018-08-20T15:30:00.613Z,29.30
2018-08-20T15:32:28.854Z,29.30
2018-08-20T15:34:57.073Z,29.30
2018-08-20T15:37:25.294Z,29.20
2018-08-20T15:39:53.552Z,29.20
2018-08-20T15:42:22.121Z,29.20
2018-08-20T15:44:50.350Z,29.20
2018-08-20T15:47:18.608Z,29.10
2018-08-20T15:49:46.833Z,29.10
2018-08-20T15:52:15.091Z,29.10
2018-08-20T15:54:43.312Z,29.10
2018-08-20T15:57:11.545Z,29.00
2018-08-20T15:59:39.792Z,29.00
2018-08-20T16:02:08.038Z,29.10
2018-08-20T16:04:36.263Z,29.10
2018-08-20T16:07:04.577Z,29.00
2018-08-20T16:09:32.812Z,29.00
2018-08-20T16:12:01.046Z,29.00
2018-08-20T16:14:29.275Z,29.00
2018-08-20T16:16:57.528Z,28.90
2018-08-20T16:19:25.776Z,28.90
2018-08-20T16:21:54.002Z,28.90
2018-08-20T16:24:22.234Z,28.80
2018-08-20T16:26:50.523Z,28.80
2018-08-20T16:29:18.711Z,28.90
2018-08-20T16:31:46.965Z,28.80
2018-08-20T16:34:15.190Z,28.80
2018-08-20T16:36:43.432Z,28.70
2018-08-20T16:39:12.681Z,28.70
2018-08-20T16:41:40.863Z,28.60
2018-08-20T16:44:10.057Z,28.60
2018-08-20T16:46:38.674Z,28.60
2018-08-20T16:49:08.161Z,28.60
2018-08-20T16:51:36.473Z,28.60
2018-08-20T16:54:04.690Z,28.50
2018-08-20T16:56:32.899Z,28.50
2018-08-20T16:59:01.119Z,28.50
2018-08-20T17:01:29.374Z,28.50
2018-08-20T17:03:57.636Z,28.50
2018-08-20T17:06:39.635Z,28.40
2018-08-20T17:09:07.856Z,28.50
2018-08-20T17:11:36.084Z,28.40
2018-08-20T17:14:04.311Z,28.40
2018-08-20T17:16:32.527Z,28.30
2018-08-20T17:19:00.785Z,28.30
2018-08-20T17:21:29.010Z,28.20
2018-08-20T17:23:57.241Z,28.20
2018-08-20T17:26:25.694Z,28.10
2018-08-20T17:28:55.297Z,28.10
2018-08-20T17:31:23.541Z,28.00
2018-08-20T17:33:51.768Z,27.90
2018-08-20T17:36:19.999Z,27.90
2018-08-20T17:38:48.241Z,27.80
2018-08-20T17:41:16.470Z,27.80
2018-08-20T17:43:44.720Z,27.70
2018-08-20T17:46:12.951Z,27.70
2018-08-20T17:48:41.188Z,27.60
2018-08-20T17:51:09.429Z,27.60
2018-08-20T17:53:48.950Z,27.60
2018-08-20T17:56:17.164Z,27.50
2018-08-20T17:58:45.401Z,27.40
2018-08-20T18:01:13.647Z,27.40
2018-08-20T18:03:43.159Z,27.40
2018-08-20T18:06:11.396Z,27.30
2018-08-20T18:08:39.614Z,27.20
2018-08-20T18:11:08.419Z,27.20
2018-08-20T18:13:46.344Z,27.10
2018-08-20T18:16:18.799Z,27.10
2018-08-20T18:18:51.275Z,27.00
2018-08-20T18:21:19.748Z,26.90
2018-08-20T18:23:47.995Z,26.90
2018-08-20T18:26:16.218Z,26.80
2018-08-20T18:28:48.682Z,26.70
2018-08-20T18:31:24.362Z,26.70
2018-08-20T18:33:52.637Z,26.60
2018-08-20T18:36:22.122Z,26.60
2018-08-20T18:38:52.998Z,26.50
2018-08-20T18:41:25.546Z,26.50
2018-08-20T18:43:53.778Z,26.40
2018-08-20T18:46:22.024Z,26.40
2018-08-20T18:48:50.278Z,26.30
2018-08-20T18:51:18.502Z,26.30
2018-08-20T18:53:46.757Z,26.20
2018-08-20T18:56:17.338Z,26.20
2018-08-20T18:58:45.748Z,26.10
2018-08-20T19:01:14.046Z,26.10
2018-08-20T19:03:47.514Z,26.00
2018-08-20T19:06:16.311Z,26.00
2018-08-20T19:08:44.555Z,25.90
2018-08-20T19:11:13.244Z,25.90
2018-08-20T19:13:42.455Z,25.80
2018-08-20T19:16:37.862Z,25.80
2018-08-20T19:19:07.059Z,25.70
2018-08-20T19:21:38.486Z,25.60
2018-08-20T19:24:07.816Z,25.60
2018-08-20T19:26:36.122Z,25.50
2018-08-20T19:29:17.249Z,25.40
2018-08-20T19:31:45.493Z,25.40
2018-08-20T19:34:13.726Z,25.30
2018-08-20T19:36:41.939Z,25.20
2018-08-20T19:39:10.177Z,25.20
2018-08-20T19:41:38.410Z,25.10
2018-08-20T19:44:06.902Z,25.00
2018-08-20T19:46:38.915Z,24.90
2018-08-20T19:49:09.533Z,24.90
2018-08-20T19:51:39.846Z,24.70
2018-08-20T19:54:09.668Z,24.60
2018-08-20T19:56:38.225Z,24.60
2018-08-20T19:59:06.486Z,24.60
2018-08-20T20:01:34.697Z,24.50
2018-08-20T20:04:02.961Z,24.50
2018-08-20T20:06:31.303Z,24.40
2018-08-20T20:09:05.667Z,24.40
2018-08-20T20:11:33.919Z,24.40
2018-08-20T20:14:03.181Z,24.20
2018-08-20T20:16:40.878Z,24.00
2018-08-20T20:19:09.735Z,23.90
2018-08-20T20:21:38.214Z,23.90
2018-08-20T20:24:07.109Z,23.70
2018-08-20T20:26:35.335Z,23.60
2018-08-20T20:29:03.950Z,23.60
2018-08-20T20:31:39.821Z,23.60
2018-08-20T20:34:08.165Z,23.50
2018-08-20T20:36:36.415Z,23.50
2018-08-20T20:39:07.231Z,23.60
2018-08-20T20:41:35.449Z,23.60
2018-08-20T20:44:03.973Z,23.60
2018-08-20T20:46:32.223Z,23.60
2018-08-20T20:49:00.463Z,23.50
2018-08-20T20:51:28.698Z,23.40
2018-08-20T20:53:56.930Z,23.40
2018-08-20T20:56:25.156Z,23.30
2018-08-20T20:58:53.412Z,23.20
2018-08-20T21:01:21.666Z,23.20
2018-08-20T21:03:49.892Z,23.10
2018-08-20T21:06:18.126Z,23.10
2018-08-20T21:08:46.347Z,23.00
2018-08-20T21:11:15.420Z,22.90
2018-08-20T21:13:44.094Z,22.80
2018-08-20T21:16:13.523Z,22.70
2018-08-20T21:18:45.592Z,22.70
2018-08-20T21:21:14.975Z,22.60
2018-08-20T21:23:43.195Z,22.60
2018-08-20T21:26:11.556Z,22.60
2018-08-20T21:28:54.722Z,22.50
2018-08-20T21:31:24.266Z,22.50
2018-08-20T21:33:57.238Z,22.50
2018-08-20T21:36:25.487Z,22.50
2018-08-20T21:38:53.748Z,22.50
2018-08-20T21:41:23.106Z,22.40
2018-08-20T21:43:51.548Z,22.30
2018-08-20T21:46:19.811Z,22.20
2018-08-20T21:48:48.022Z,22.20
2018-08-20T21:51:29.187Z,22.20
2018-08-20T21:53:57.578Z,22.20
2018-08-20T21:56:35.921Z,22.10
2018-08-20T21:59:04.166Z,21.90
2018-08-20T22:01:32.392Z,21.90
2018-08-20T22:04:00.611Z,21.80
2018-08-20T22:06:28.835Z,21.80
2018-08-20T22:08:57.070Z,21.70
2018-08-20T22:11:25.296Z,21.80
2018-08-20T22:13:53.507Z,21.80
2018-08-20T22:16:23.852Z,21.80
2018-08-20T22:18:55.084Z,21.60
2018-08-20T22:21:23.510Z,21.60
2018-08-20T22:23:51.745Z,21.50
2018-08-20T22:26:21.071Z,21.50
2018-08-20T22:28:50.550Z,21.40
2018-08-20T22:31:18.994Z,21.40
2018-08-20T22:33:52.570Z,21.40
2018-08-20T22:36:20.794Z,21.30
2018-08-20T22:38:51.466Z,21.30
2018-08-20T22:41:20.005Z,21.30
2018-08-20T22:43:48.379Z,21.40
2018-08-20T22:46:16.893Z,21.40
2018-08-20T22:48:45.177Z,21.30
2018-08-20T22:51:14.978Z,21.40
2018-08-20T22:53:45.621Z,21.20
2018-08-20T22:56:19.221Z,21.30
2018-08-20T22:58:47.446Z,21.20
2018-08-20T23:01:15.684Z,21.10
2018-08-20T23:03:43.941Z,21.10
2018-08-20T23:06:12.166Z,21.10
2018-08-20T23:08:40.380Z,21.00
2018-08-20T23:11:08.593Z,20.90
2018-08-20T23:13:37.270Z,20.80
2018-08-20T23:16:05.505Z,20.80
2018-08-20T23:18:33.822Z,20.80
2018-08-20T23:21:02.053Z,20.60
2018-08-20T23:23:34.770Z,20.60
2018-08-20T23:26:07.234Z,20.60
2018-08-20T23:28:38.181Z,20.50
2018-08-20T23:31:06.435Z,20.30
2018-08-20T23:33:39.507Z,20.30
2018-08-20T23:36:08.416Z,20.40
2018-08-20T23:38:36.646Z,20.50
2018-08-20T23:41:04.881Z,20.50
2018-08-20T23:43:33.094Z,20.40
2018-08-20T23:46:01.326Z,20.40
2018-08-20T23:48:29.571Z,20.40
2018-08-20T23:51:02.034Z,20.30
2018-08-20T23:53:30.244Z,20.30
2018-08-20T23:55:58.453Z,20.50
2018-08-20T23:58:26.695Z,20.60
